createdAt,value
2016-09-14T00:00:24.056Z,87.95
2016-09-14T00:01:35.058Z,87.46
2016-09-14T00:02:46.261Z,87.46
2016-09-14T00:03:57.273Z,88.53
2016-09-14T00:05:08.288Z,88.62
2016-09-14T00:06:19.295Z,88.71
2016-09-14T00:07:30.296Z,89.01
2016-09-14T00:08:41.505Z,89.01
2016-09-14T00:09:52.503Z,88.53
2016-09-14T00:11:03.506Z,89.01
2016-09-14T00:12:14.512Z,88.24
2016-09-14T00:13:25.512Z,88.48
2016-09-14T00:14:36.519Z,89.2
2016-09-14T00:15:47.523Z,89.29
2016-09-14T00:16:59.135Z,88.48
2016-09-14T00:18:10.142Z,88.29
2016-09-14T00:19:21.348Z,89.06
2016-09-14T00:20:32.557Z,88.91
2016-09-14T00:21:43.758Z,90.31
2016-09-14T00:22:54.768Z,89.64
2016-09-14T00:24:05.771Z,89.73
2016-09-14T00:25:16.977Z,90.12
2016-09-14T00:26:27.985Z,90.41
2016-09-14T00:27:38.985Z,90.12
2016-09-14T00:28:50.003Z,89.92
2016-09-14T00:30:01.210Z,90.02
2016-09-14T00:31:12.229Z,89.25
2016-09-14T00:32:23.228Z,88.96
2016-09-14T00:33:34.222Z,89.35
2016-09-14T00:34:45.435Z,89.25
2016-09-14T00:35:56.454Z,88.67
2016-09-14T00:37:07.453Z,88.34
2016-09-14T00:38:18.449Z,88.57
2016-09-14T00:39:29.654Z,88.1
2016-09-14T00:40:40.656Z,88.39
2016-09-14T00:41:51.658Z,88.29
2016-09-14T00:43:02.662Z,88.39
2016-09-14T00:44:13.911Z,88.29
2016-09-14T00:45:24.914Z,88.24
2016-09-14T00:46:35.924Z,88.24
2016-09-14T00:47:46.925Z,88
2016-09-14T00:48:57.923Z,88.06
2016-09-14T00:50:09.144Z,88.29
2016-09-14T00:51:20.139Z,88.39
2016-09-14T00:52:31.196Z,89.11
2016-09-14T00:53:42.198Z,89.69
2016-09-14T00:54:53.204Z,89.54
2016-09-14T00:56:04.208Z,89.11
2016-09-14T00:57:15.404Z,89.59
2016-09-14T00:58:26.407Z,89.01
2016-09-14T00:59:37.418Z,89.69
2016-09-14T01:00:48.423Z,89.5
2016-09-14T01:01:59.435Z,89.3
2016-09-14T01:03:10.436Z,89.88
2016-09-14T01:04:21.454Z,90.26
2016-09-14T01:05:32.463Z,89.5
2016-09-14T01:06:43.476Z,89.69
2016-09-14T01:07:54.480Z,90.07
2016-09-14T01:09:05.483Z,89.98
2016-09-14T01:10:16.692Z,90.45
2016-09-14T01:11:27.696Z,89.88
2016-09-14T01:12:38.704Z,89.88
2016-09-14T01:13:49.706Z,89.78
2016-09-14T01:15:00.706Z,89.4
2016-09-14T01:16:11.712Z,89.78
2016-09-14T01:17:22.714Z,89.59
2016-09-14T01:18:33.917Z,89.01
2016-09-14T01:19:44.923Z,89.11
2016-09-14T01:20:55.920Z,89.11
2016-09-14T01:22:06.935Z,89.11
2016-09-14T01:23:17.934Z,89.11
2016-09-14T01:24:28.943Z,89.3
2016-09-14T01:25:39.944Z,89.11
2016-09-14T01:26:50.955Z,89.5
2016-09-14T01:28:01.957Z,89.01
2016-09-14T01:29:13.364Z,89.69
2016-09-14T01:30:24.364Z,89.78
2016-09-14T01:31:35.570Z,89.69
2016-09-14T01:32:46.582Z,89.3
2016-09-14T01:33:57.589Z,89.21
2016-09-14T01:35:08.602Z,89.11
2016-09-14T01:36:19.608Z,88.92
2016-09-14T01:37:30.824Z,89.59
2016-09-14T01:38:41.832Z,89.78
2016-09-14T01:39:52.867Z,89.21
2016-09-14T01:41:03.878Z,89.69
2016-09-14T01:42:14.885Z,89.45
2016-09-14T01:43:25.891Z,88.92
2016-09-14T01:44:36.895Z,88.78
2016-09-14T01:45:47.905Z,88.68
2016-09-14T01:46:58.920Z,88.78
2016-09-14T01:48:09.928Z,89.54
2016-09-14T01:49:20.929Z,89.07
2016-09-14T01:50:32.128Z,89.64
2016-09-14T01:51:43.127Z,89.83
2016-09-14T01:52:54.179Z,90.12
2016-09-14T01:54:05.200Z,89.93
2016-09-14T01:55:16.207Z,89.74
2016-09-14T01:56:27.220Z,89.93
2016-09-14T01:57:38.220Z,89.83
2016-09-14T01:58:49.242Z,89.74
2016-09-14T02:00:00.246Z,89.93
2016-09-14T02:01:11.268Z,89.64
2016-09-14T02:02:22.270Z,89.16
2016-09-14T02:03:33.279Z,89.54
2016-09-14T02:04:44.477Z,89.07
2016-09-14T02:05:55.681Z,89.26
2016-09-14T02:07:06.886Z,88.78
2016-09-14T02:08:17.902Z,88.97
2016-09-14T02:09:28.910Z,89.07
2016-09-14T02:10:39.909Z,89.64
2016-09-14T02:11:50.971Z,89.16
2016-09-14T02:13:01.970Z,89.16
2016-09-14T02:14:12.973Z,89.93
2016-09-14T02:15:23.977Z,90.03
2016-09-14T02:16:34.981Z,89.83
2016-09-14T02:17:45.980Z,90.12
2016-09-14T02:18:56.976Z,90.17
2016-09-14T02:20:07.982Z,89.69
2016-09-14T02:21:18.986Z,89.45
2016-09-14T02:22:29.996Z,89.54
2016-09-14T02:23:41.005Z,89.98
2016-09-14T02:24:52.002Z,90.08
2016-09-14T02:26:03.209Z,89.79
2016-09-14T02:27:14.211Z,89.98
2016-09-14T02:28:25.216Z,89.98
2016-09-14T02:29:36.416Z,89.22
2016-09-14T02:30:47.417Z,89.02
2016-09-14T02:31:58.425Z,89.12
2016-09-14T02:33:09.434Z,89.12
2016-09-14T02:34:20.447Z,89.79
2016-09-14T02:35:31.449Z,90.37
2016-09-14T02:36:42.457Z,90.46
2016-09-14T02:37:53.462Z,89.89
2016-09-14T02:39:04.459Z,90.56
2016-09-14T02:40:15.466Z,90.17
2016-09-14T02:41:26.475Z,90.17
2016-09-14T02:42:37.681Z,89.4
2016-09-14T02:43:48.677Z,89.98
2016-09-14T02:44:59.682Z,90.46
2016-09-14T02:46:10.682Z,90.46
2016-09-14T02:47:21.683Z,90.17
2016-09-14T02:48:32.702Z,89.6
2016-09-14T02:49:44.314Z,89.4
2016-09-14T02:50:55.313Z,89.6
2016-09-14T02:52:06.716Z,89.5
2016-09-14T02:53:17.771Z,89.89
2016-09-14T02:54:28.780Z,89.6
2016-09-14T02:55:39.787Z,89.6
2016-09-14T02:56:50.989Z,90.08
2016-09-14T02:58:02.197Z,89.89
2016-09-14T02:59:13.395Z,90.17
2016-09-14T03:00:24.410Z,89.69
2016-09-14T03:01:35.619Z,89.69
2016-09-14T03:02:46.615Z,90.08
2016-09-14T03:03:57.619Z,89.69
2016-09-14T03:05:08.618Z,89.69
2016-09-14T03:06:19.623Z,89.69
2016-09-14T03:07:30.623Z,89.5
2016-09-14T03:08:41.818Z,90.37
2016-09-14T03:09:52.824Z,90.52
2016-09-14T03:11:03.829Z,90.17
2016-09-14T03:12:14.833Z,90.56
2016-09-14T03:13:25.836Z,90.42
2016-09-14T03:14:37.039Z,90.52
2016-09-14T03:15:48.250Z,89.94
2016-09-14T03:16:59.261Z,89.94
2016-09-14T03:18:10.466Z,90.8
2016-09-14T03:19:21.464Z,91.09
2016-09-14T03:20:32.471Z,90.22
2016-09-14T03:21:43.480Z,89.65
2016-09-14T03:22:54.677Z,90.52
2016-09-14T03:24:05.907Z,91.47
2016-09-14T03:25:16.938Z,91.09
2016-09-14T03:26:27.942Z,90.7
2016-09-14T03:27:38.943Z,91.09
2016-09-14T03:28:49.952Z,91.38
2016-09-14T03:30:00.964Z,91.86
2016-09-14T03:31:11.964Z,91.57
2016-09-14T03:32:23.180Z,90.99
2016-09-14T03:33:34.184Z,91.57
2016-09-14T03:34:45.191Z,90.9
2016-09-14T03:35:56.201Z,90.99
2016-09-14T03:37:07.415Z,91.09
2016-09-14T03:38:18.429Z,90.8
2016-09-14T03:39:29.439Z,90.9
2016-09-14T03:40:40.442Z,91.09
2016-09-14T03:41:51.451Z,90.99
2016-09-14T03:43:02.451Z,91.28
2016-09-14T03:44:13.465Z,91.47
2016-09-14T03:45:24.467Z,91.52
2016-09-14T03:46:35.467Z,90.85
2016-09-14T03:47:46.474Z,90.75
2016-09-14T03:48:57.680Z,91.09
2016-09-14T03:50:08.682Z,90.95
2016-09-14T03:51:19.687Z,91.42
2016-09-14T03:52:30.701Z,91.24
2016-09-14T03:53:41.749Z,91.09
2016-09-14T03:54:52.749Z,90.56
2016-09-14T03:56:03.756Z,90.95
2016-09-14T03:57:14.764Z,91.24
2016-09-14T03:58:25.770Z,91.62
2016-09-14T03:59:36.770Z,91.72
2016-09-14T04:00:47.787Z,91.14
2016-09-14T04:01:58.988Z,91.91
2016-09-14T04:03:09.991Z,91.81
2016-09-14T04:04:20.999Z,91.91
2016-09-14T04:05:32.404Z,91.72
2016-09-14T04:06:43.602Z,90.85
2016-09-14T04:07:54.614Z,91.14
2016-09-14T04:09:05.645Z,90.56
2016-09-14T04:10:16.663Z,90.95
2016-09-14T04:11:27.665Z,91.05
2016-09-14T04:13:49.522Z,91.42
2016-09-14T04:15:00.539Z,90.66
2016-09-14T04:16:11.537Z,90.85
2016-09-14T04:17:22.553Z,91.81
2016-09-14T04:18:33.563Z,91.91
2016-09-14T04:19:44.763Z,91.72
2016-09-14T04:20:55.767Z,91.62
2016-09-14T04:22:06.972Z,90.85
2016-09-14T04:23:17.975Z,91.14
2016-09-14T04:24:28.984Z,91.72
2016-09-14T04:25:40.180Z,91.24
2016-09-14T04:26:51.189Z,91.52
2016-09-14T04:28:02.197Z,91.62
2016-09-14T04:29:13.192Z,91.05
2016-09-14T04:30:24.211Z,91.24
2016-09-14T04:31:35.219Z,91.14
2016-09-14T04:32:46.225Z,91.24
2016-09-14T04:33:57.226Z,91.42
2016-09-14T04:35:08.239Z,90.95
2016-09-14T04:36:19.451Z,90.85
2016-09-14T04:37:30.663Z,90.85
2016-09-14T04:38:41.665Z,90.85
2016-09-14T04:39:52.668Z,90.66
2016-09-14T04:41:03.680Z,91.05
2016-09-14T04:42:14.683Z,90.66
2016-09-14T04:43:25.702Z,91.14
2016-09-14T04:44:36.690Z,91.33
2016-09-14T04:45:47.709Z,90.66
2016-09-14T04:46:58.714Z,90.85
2016-09-14T04:48:09.721Z,90.75
2016-09-14T04:49:20.736Z,90.75
2016-09-14T04:50:31.935Z,92.1
2016-09-14T04:51:42.939Z,91.05
2016-09-14T04:52:53.942Z,91.42
2016-09-14T04:54:05.400Z,90.66
2016-09-14T04:55:16.405Z,91.05
2016-09-14T04:56:27.412Z,91.33
2016-09-14T04:57:38.618Z,90.95
2016-09-14T04:58:49.622Z,90.66
2016-09-14T05:00:00.618Z,92.44
2016-09-14T05:01:11.619Z,93.21
2016-09-14T05:02:22.617Z,92.34
2016-09-14T05:03:33.636Z,92.54
2016-09-14T05:04:44.644Z,91.48
2016-09-14T05:05:55.652Z,90.75
2016-09-14T05:07:06.661Z,91.48
2016-09-14T05:08:17.655Z,91.19
2016-09-14T05:09:28.653Z,91.67
2016-09-14T05:10:39.651Z,91.77
2016-09-14T05:11:50.861Z,91.77
2016-09-14T05:13:01.869Z,92.86
2016-09-14T05:14:12.864Z,91.67
2016-09-14T05:15:23.861Z,91.19
2016-09-14T05:16:34.856Z,91.38
2016-09-14T05:17:45.853Z,91
2016-09-14T05:18:56.866Z,91
2016-09-14T05:20:07.858Z,91.77
2016-09-14T05:21:18.856Z,92.34
2016-09-14T05:22:29.866Z,92.54
2016-09-14T05:23:40.876Z,91.67
2016-09-14T05:24:51.884Z,90.71
2016-09-14T05:26:02.884Z,91.62
2016-09-14T05:27:13.886Z,92.91
2016-09-14T05:28:24.884Z,93.59
2016-09-14T05:29:35.893Z,92.34
2016-09-14T05:30:46.896Z,91.86
2016-09-14T05:31:57.913Z,91.57
2016-09-14T05:33:08.915Z,93.01
2016-09-14T05:34:19.917Z,93.78
2016-09-14T05:35:31.332Z,92.72
2016-09-14T05:36:42.330Z,91.86
2016-09-14T05:37:53.529Z,91.96
2016-09-14T05:39:04.528Z,94.35
2016-09-14T05:40:15.725Z,93.35
2016-09-14T05:41:26.727Z,93.92
2016-09-14T05:42:37.732Z,93.88
2016-09-14T05:43:48.733Z,92.68
2016-09-14T05:44:59.747Z,91.72
2016-09-14T05:46:10.748Z,92
2016-09-14T05:47:21.764Z,91.05
2016-09-14T05:48:32.764Z,90.56
2016-09-14T05:49:43.773Z,89.89
2016-09-14T05:50:54.787Z,90.47
2016-09-14T05:52:05.996Z,90.85
2016-09-14T05:53:17.005Z,90.56
2016-09-14T05:54:28.051Z,90.95
2016-09-14T05:55:39.254Z,90.18
2016-09-14T05:56:50.261Z,90.66
2016-09-14T05:58:01.472Z,89.61
2016-09-14T05:59:12.684Z,93.25
2016-09-14T06:00:23.678Z,94.69
2016-09-14T06:01:34.681Z,93.63
2016-09-14T06:02:45.679Z,92.19
2016-09-14T06:03:56.691Z,90.66
2016-09-14T06:05:07.688Z,90.75
2016-09-14T06:06:18.693Z,89.12
2016-09-14T06:07:29.703Z,90.99
2016-09-14T06:08:40.702Z,91.72
2016-09-14T06:09:51.705Z,90.99
2016-09-14T06:11:02.705Z,89.75
2016-09-14T06:12:13.702Z,90.61
2016-09-14T06:13:24.708Z,92.72
2016-09-14T06:14:35.711Z,93.97
2016-09-14T06:15:46.720Z,92.53
2016-09-14T06:16:57.920Z,92.63
2016-09-14T06:18:08.919Z,93.87
2016-09-14T06:19:19.915Z,93.39
2016-09-14T06:20:30.914Z,93.3
2016-09-14T06:21:41.921Z,92.43
2016-09-14T06:22:52.947Z,92.14
2016-09-14T06:24:03.943Z,90.99
2016-09-14T06:25:14.948Z,90.56
2016-09-14T06:26:25.937Z,92.86
2016-09-14T06:27:36.937Z,89.98
2016-09-14T06:28:47.943Z,88.35
2016-09-14T06:29:58.952Z,89.69
2016-09-14T06:31:09.953Z,90.27
2016-09-14T06:32:21.154Z,90.84
2016-09-14T06:33:32.164Z,91.13
2016-09-14T06:34:43.167Z,90.84
2016-09-14T06:35:54.171Z,93.92
2016-09-14T06:37:05.173Z,95.4
2016-09-14T06:38:16.373Z,93.96
2016-09-14T06:39:27.381Z,91.37
2016-09-14T06:40:38.385Z,91.18
2016-09-14T06:41:49.397Z,93.96
2016-09-14T06:43:00.411Z,93.1
2016-09-14T06:44:11.415Z,95.65
2016-09-14T06:45:22.422Z,94.64
2016-09-14T06:46:33.831Z,91.27
2016-09-14T06:47:44.845Z,87.7
2016-09-14T06:48:56.053Z,86.69
2016-09-14T06:50:07.059Z,82.62
2016-09-14T06:51:18.072Z,83.44
2016-09-14T06:52:29.286Z,80.78
2016-09-14T06:53:40.290Z,77.44
2016-09-14T06:54:51.343Z,76.8
2016-09-14T06:56:02.548Z,74.23
2016-09-14T06:57:13.548Z,72.62
2016-09-14T06:58:24.557Z,72.08
2016-09-14T06:59:35.560Z,71.62
2016-09-14T07:00:46.570Z,69.92
2016-09-14T07:01:57.579Z,68.99
2016-09-14T07:03:08.615Z,67.14
2016-09-14T07:04:19.829Z,67.66
2016-09-14T07:05:30.843Z,66.99
2016-09-14T07:06:41.858Z,66.02
2016-09-14T07:07:53.073Z,66.92
2016-09-14T07:09:04.088Z,66.2
2016-09-14T07:10:15.103Z,66.72
2016-09-14T07:11:26.116Z,66.14
2016-09-14T07:12:37.131Z,66.14
2016-09-14T07:13:48.153Z,66.24
2016-09-14T07:14:59.160Z,66.53
2016-09-14T07:16:10.167Z,66.56
2016-09-14T07:17:21.390Z,64.82
2016-09-14T07:18:32.410Z,65.89
2016-09-14T07:19:43.425Z,67.02
2016-09-14T07:20:54.643Z,67.85
2016-09-14T07:22:05.665Z,68.54
2016-09-14T07:23:16.685Z,67.14
2016-09-14T07:24:27.701Z,67.27
2016-09-14T07:25:38.718Z,66.89
2016-09-14T07:26:49.934Z,66.24
2016-09-14T07:28:00.951Z,66.08
2016-09-14T07:29:11.968Z,65.2
2016-09-14T07:30:23.186Z,65.01
2016-09-14T07:31:34.202Z,65.79
2016-09-14T07:32:45.218Z,65.2
2016-09-14T07:33:56.435Z,66.17
2016-09-14T07:35:07.446Z,65.27
2016-09-14T07:36:18.469Z,66.37
2016-09-14T07:37:29.683Z,65.72
2016-09-14T07:38:40.701Z,64.85
2016-09-14T07:39:51.718Z,64.46
2016-09-14T07:41:02.934Z,64.88
2016-09-14T07:42:13.952Z,65.08
2016-09-14T07:43:24.971Z,63.55
2016-09-14T07:44:35.993Z,62.87
2016-09-14T07:45:47.018Z,62.81
2016-09-14T07:46:58.036Z,62.06
2016-09-14T07:48:09.059Z,60.92
2016-09-14T07:49:20.080Z,59.75
2016-09-14T07:50:31.097Z,60.82
2016-09-14T07:51:42.113Z,60.72
2016-09-14T07:52:53.134Z,59.78
2016-09-14T07:54:04.159Z,59.49
2016-09-14T07:55:15.233Z,59.35
2016-09-14T07:56:26.453Z,57.79
2016-09-14T07:57:37.476Z,58.58
2016-09-14T07:58:48.488Z,57.34
2016-09-14T07:59:59.714Z,56.46
2016-09-14T08:01:10.736Z,57.53
2016-09-14T08:02:21.757Z,57.26
2016-09-14T08:03:32.779Z,57.65
2016-09-14T08:04:43.807Z,56.51
2016-09-14T08:05:55.225Z,55.37
2016-09-14T08:07:06.241Z,55.47
2016-09-14T08:08:17.473Z,54.69
2016-09-14T08:09:28.500Z,53.83
2016-09-14T08:10:39.534Z,53.83
2016-09-14T08:11:50.765Z,54.22
2016-09-14T08:13:01.789Z,54.98
2016-09-14T08:14:12.807Z,56.05
2016-09-14T08:15:23.862Z,55.15
2016-09-14T08:16:35.099Z,56.12
2016-09-14T08:17:46.119Z,54.46
2016-09-14T08:18:57.347Z,55.44
2016-09-14T08:20:08.379Z,55.15
2016-09-14T08:21:19.411Z,54.46
2016-09-14T08:22:30.431Z,54.59
2016-09-14T08:23:41.451Z,54.2
2016-09-14T08:24:52.474Z,54.2
2016-09-14T08:26:03.491Z,53.71
2016-09-14T08:27:14.518Z,54.52
2016-09-14T08:28:25.552Z,53.83
2016-09-14T08:29:36.567Z,54.61
2016-09-14T08:30:47.796Z,53.93
2016-09-14T08:31:58.820Z,55.18
2016-09-14T08:33:09.841Z,56.45
2016-09-14T08:34:20.860Z,56.05
2016-09-14T08:35:31.881Z,54.32
2016-09-14T08:36:43.103Z,53.76
2016-09-14T08:37:54.128Z,53.2
2016-09-14T08:39:05.150Z,51.34
2016-09-14T08:40:16.171Z,53.1
2016-09-14T08:41:27.192Z,52.32
2016-09-14T08:42:38.416Z,54.05
2016-09-14T08:43:49.449Z,52.49
2016-09-14T08:45:00.473Z,54.03
2016-09-14T08:46:11.495Z,54
2016-09-14T08:47:22.523Z,54
2016-09-14T08:48:33.554Z,53.13
2016-09-14T08:49:44.580Z,54.39
2016-09-14T08:50:55.611Z,54.2
2016-09-14T08:52:06.634Z,55.08
2016-09-14T08:53:17.665Z,54
2016-09-14T08:54:28.687Z,55.18
2016-09-14T08:55:39.757Z,54.32
2016-09-14T08:56:50.996Z,53.17
2016-09-14T08:58:02.224Z,53
2016-09-14T08:59:13.236Z,52.91
2016-09-14T09:00:24.465Z,52.25
2016-09-14T09:01:35.485Z,50.88
2016-09-14T09:02:46.507Z,51.46
2016-09-14T09:03:57.536Z,52.25
2016-09-14T09:05:08.565Z,51.95
2016-09-14T09:06:19.581Z,51.93
2016-09-14T09:07:30.624Z,51.93
2016-09-14T09:08:41.648Z,53.39
2016-09-14T09:09:52.678Z,51.27
2016-09-14T09:11:03.714Z,52.05
2016-09-14T09:12:14.939Z,51.86
2016-09-14T09:13:25.959Z,51.17
2016-09-14T09:14:36.991Z,52.34
2016-09-14T09:15:48.018Z,52.86
2016-09-14T09:16:59.049Z,52.56
2016-09-14T09:18:10.082Z,53.23
2016-09-14T09:19:21.109Z,52.27
2016-09-14T09:20:32.344Z,50.56
2016-09-14T09:21:43.379Z,49.02
2016-09-14T09:22:54.406Z,49.48
2016-09-14T09:24:05.637Z,48.92
2016-09-14T09:25:16.668Z,49.11
2016-09-14T09:26:27.701Z,51.17
2016-09-14T09:27:38.924Z,48.74
2016-09-14T09:28:49.957Z,49.75
2016-09-14T09:30:01.003Z,50.24
2016-09-14T09:31:12.027Z,49.16
2016-09-14T09:32:23.051Z,48.69
2016-09-14T09:33:34.076Z,48.79
2016-09-14T09:34:45.316Z,48.99
2016-09-14T09:35:56.347Z,47.44
2016-09-14T09:37:07.372Z,47.25
2016-09-14T09:38:18.840Z,48.6
2016-09-14T09:39:30.073Z,46.83
2016-09-14T09:40:41.106Z,47.71
2016-09-14T09:41:52.139Z,48.01
2016-09-14T09:43:03.168Z,48.18
2016-09-14T09:44:14.200Z,48.28
2016-09-14T09:45:25.226Z,48.77
2016-09-14T09:46:36.273Z,47.81
2016-09-14T09:47:47.301Z,47.83
2016-09-14T09:48:58.320Z,46.75
2016-09-14T09:50:09.352Z,48.33
2016-09-14T09:51:20.381Z,49.6
2016-09-14T09:52:31.410Z,46.83
2016-09-14T09:53:42.437Z,46.73
2016-09-14T09:54:53.467Z,48.18
2016-09-14T09:56:04.549Z,48.77
2016-09-14T09:57:15.572Z,47.79
2016-09-14T09:58:26.598Z,48.69
2016-09-14T09:59:37.625Z,48.23
2016-09-14T10:00:48.654Z,46.75
2016-09-14T10:01:59.680Z,45.89
2016-09-14T10:03:10.707Z,47.05
2016-09-14T10:04:21.930Z,47.86
2016-09-14T10:05:32.958Z,49.13
2016-09-14T10:06:44.195Z,46.21
2016-09-14T10:07:55.232Z,48.18
2016-09-14T10:09:06.262Z,47.88
2016-09-14T10:10:17.287Z,46.33
2016-09-14T10:11:28.307Z,45.94
2016-09-14T10:12:39.531Z,46.41
2016-09-14T10:13:50.554Z,45.79
2016-09-14T10:15:01.574Z,46.78
2016-09-14T10:16:12.800Z,45.72
2016-09-14T10:17:23.840Z,46.7
2016-09-14T10:18:34.869Z,45.74
2016-09-14T10:19:45.899Z,46.06
2016-09-14T10:20:56.994Z,44.88
2016-09-14T10:22:08.024Z,44.78
2016-09-14T10:23:19.047Z,44.88
2016-09-14T10:24:30.068Z,46.35
2016-09-14T10:25:41.103Z,46.57
2016-09-14T10:26:52.134Z,46.47
2016-09-14T10:28:03.160Z,44.23
2016-09-14T10:29:14.186Z,43.42
2016-09-14T10:30:25.220Z,44.6
2016-09-14T10:31:36.252Z,44.51
2016-09-14T10:32:47.281Z,44.03
2016-09-14T10:33:58.310Z,44.33
2016-09-14T10:35:09.340Z,43.86
2016-09-14T10:36:20.369Z,43.66
2016-09-14T10:37:31.398Z,44.45
2016-09-14T10:38:42.430Z,42.4
2016-09-14T10:39:53.459Z,44.57
2016-09-14T10:41:04.691Z,45.08
2016-09-14T10:42:15.716Z,42.52
2016-09-14T10:43:26.942Z,43.6
2016-09-14T10:44:37.962Z,43.31
2016-09-14T10:45:48.987Z,42.91
2016-09-14T10:47:00.216Z,43.76
2016-09-14T10:48:11.258Z,43.96
2016-09-14T10:49:22.286Z,44.65
2016-09-14T10:50:33.317Z,43.74
2016-09-14T10:51:44.345Z,42.85
2016-09-14T10:52:55.371Z,45.34
2016-09-14T10:54:06.400Z,43.98
2016-09-14T10:55:17.429Z,43.38
2016-09-14T10:56:28.510Z,44.1
2016-09-14T10:57:39.529Z,42.91
2016-09-14T10:58:50.563Z,42.82
2016-09-14T11:00:01.624Z,41.36
2016-09-14T11:01:12.657Z,43.03
2016-09-14T11:02:23.887Z,41.93
2016-09-14T11:03:34.922Z,41.91
2016-09-14T11:04:45.946Z,43.29
2016-09-14T11:05:56.971Z,42.5
2016-09-14T11:07:07.991Z,44.2
2016-09-14T11:08:19.020Z,43.03
2016-09-14T11:09:30.047Z,42.24
2016-09-14T11:10:41.475Z,43.11
2016-09-14T11:11:52.508Z,42.64
2016-09-14T11:13:03.531Z,42.13
2016-09-14T11:14:14.549Z,41.65
2016-09-14T11:15:25.576Z,41.73
2016-09-14T11:16:36.595Z,41.71
2016-09-14T11:17:47.612Z,41.61
2016-09-14T11:18:58.839Z,41.61
2016-09-14T11:20:10.067Z,42.47
2016-09-14T11:21:21.292Z,43.76
2016-09-14T11:22:32.317Z,43.37
2016-09-14T11:23:43.351Z,41.89
2016-09-14T11:24:54.378Z,43.64
2016-09-14T11:26:05.601Z,42.36
2016-09-14T11:27:16.825Z,43.54
2016-09-14T11:28:27.844Z,43.91
2016-09-14T11:29:38.864Z,43.91
2016-09-14T11:30:49.895Z,43.62
2016-09-14T11:32:00.923Z,44.8
2016-09-14T11:33:11.955Z,43.5
2016-09-14T11:34:22.980Z,43.5
2016-09-14T11:35:33.998Z,44.98
2016-09-14T11:36:45.221Z,44.68
2016-09-14T11:37:56.247Z,45.07
2016-09-14T11:39:07.281Z,46.75
2016-09-14T11:40:18.304Z,44.6
2016-09-14T11:41:29.335Z,44.51
2016-09-14T11:42:40.356Z,42.46
2016-09-14T11:43:51.381Z,43.64
2016-09-14T11:45:02.409Z,41.77
2016-09-14T11:46:13.429Z,43.37
2016-09-14T11:47:24.463Z,41.59
2016-09-14T11:48:35.479Z,42.28
2016-09-14T11:49:46.513Z,41.71
2016-09-14T11:50:57.544Z,41.93
2016-09-14T11:52:08.579Z,43.01
2016-09-14T11:53:19.800Z,42.72
2016-09-14T11:54:30.838Z,43.19
2016-09-14T11:55:41.862Z,43.78
2016-09-14T11:56:52.937Z,40.72
2016-09-14T11:58:03.956Z,42.89
2016-09-14T11:59:14.988Z,41.73
2016-09-14T12:00:26.016Z,41.53
2016-09-14T12:01:37.039Z,42.22
2016-09-14T12:02:48.070Z,41.14
2016-09-14T12:03:59.105Z,41.55
2016-09-14T12:05:10.337Z,40.64
2016-09-14T12:06:21.360Z,41.36
2016-09-14T12:07:32.386Z,41.28
2016-09-14T12:08:43.408Z,41.67
2016-09-14T12:09:54.441Z,40.09
2016-09-14T12:11:05.460Z,39.89
2016-09-14T12:12:16.474Z,40.86
2016-09-14T12:13:27.500Z,40.56
2016-09-14T12:14:38.523Z,41.04
2016-09-14T12:15:49.548Z,41.33
2016-09-14T12:17:00.573Z,41.14
2016-09-14T12:18:11.602Z,40.13
2016-09-14T12:19:22.628Z,40.63
2016-09-14T12:20:33.652Z,40.51
2016-09-14T12:21:44.691Z,42.77
2016-09-14T12:22:55.915Z,41.89
2016-09-14T12:24:06.937Z,41.99
2016-09-14T12:25:17.945Z,41.47
2016-09-14T12:26:28.980Z,40.09
2016-09-14T12:27:40.009Z,41.47
2016-09-14T12:28:51.027Z,43.34
2016-09-14T12:30:02.049Z,43.24
2016-09-14T12:31:13.063Z,42.47
2016-09-14T12:32:24.089Z,44.15
2016-09-14T12:33:35.310Z,43.27
2016-09-14T12:34:46.527Z,40.7
2016-09-14T12:35:57.556Z,39.72
2016-09-14T12:37:08.808Z,40.88
2016-09-14T12:38:19.827Z,39.89
2016-09-14T12:39:30.853Z,40.76
2016-09-14T12:40:41.883Z,41.25
2016-09-14T12:41:52.907Z,43.42
2016-09-14T12:43:04.130Z,44.01
2016-09-14T12:44:15.148Z,41.16
2016-09-14T12:45:26.163Z,42.73
2016-09-14T12:46:37.182Z,41.25
2016-09-14T12:47:48.207Z,41.83
2016-09-14T12:48:59.225Z,41.83
2016-09-14T12:50:10.247Z,43.48
2016-09-14T12:51:21.274Z,41.71
2016-09-14T12:52:32.288Z,42.1
2016-09-14T12:53:43.307Z,41.9
2016-09-14T12:54:54.329Z,41.19
2016-09-14T12:56:05.551Z,41.47
2016-09-14T12:57:16.616Z,42.45
2016-09-14T12:58:27.628Z,42.85
2016-09-14T12:59:38.657Z,42.72
2016-09-14T13:00:49.674Z,42.63
2016-09-14T13:02:00.901Z,43.41
2016-09-14T13:03:11.926Z,44.57
2016-09-14T13:04:22.953Z,43.71
2016-09-14T13:05:33.965Z,42.9
2016-09-14T13:06:44.984Z,43.1
2016-09-14T13:07:55.999Z,45.55
2016-09-14T13:09:07.029Z,44.77
2016-09-14T13:10:18.043Z,45.06
2016-09-14T13:11:29.065Z,44.27
2016-09-14T13:12:40.079Z,44.27
2016-09-14T13:13:51.303Z,44.18
2016-09-14T13:15:02.519Z,44.67
2016-09-14T13:16:13.541Z,45.34
2016-09-14T13:17:24.759Z,45.43
2016-09-14T13:18:35.974Z,44.55
2016-09-14T13:19:46.995Z,43.66
2016-09-14T13:20:58.012Z,43.96
2016-09-14T13:22:09.430Z,44.65
2016-09-14T13:23:20.657Z,42.79
2016-09-14T13:24:31.676Z,42.68
2016-09-14T13:25:42.686Z,42.49
2016-09-14T13:26:53.703Z,44.04
2016-09-14T13:28:04.932Z,44.73
2016-09-14T13:29:15.942Z,44.74
2016-09-14T13:30:26.959Z,45.34
2016-09-14T13:31:37.975Z,45.34
2016-09-14T13:32:49.194Z,46.02
2016-09-14T13:34:00.230Z,46.51
2016-09-14T13:35:11.251Z,46.59
2016-09-14T13:36:22.271Z,45.41
2016-09-14T13:37:33.286Z,45.41
2016-09-14T13:38:44.508Z,42.96
2016-09-14T13:39:55.733Z,44.04
2016-09-14T13:41:06.763Z,44.23
2016-09-14T13:42:17.771Z,45.51
2016-09-14T13:43:28.802Z,45.68
2016-09-14T13:44:40.016Z,46.27
2016-09-14T13:45:51.031Z,46.66
2016-09-14T13:47:02.042Z,45.68
2016-09-14T13:48:13.060Z,45.59
2016-09-14T13:49:24.077Z,46.17
2016-09-14T13:50:35.086Z,46.08
2016-09-14T13:51:46.101Z,44.8
2016-09-14T13:52:57.123Z,45.88
2016-09-14T13:54:08.134Z,44.9
2016-09-14T13:55:19.157Z,44.31
2016-09-14T13:56:30.174Z,44.8
2016-09-14T13:57:41.228Z,45.78
2016-09-14T13:58:52.448Z,46.08
2016-09-14T14:00:03.478Z,44.6
2016-09-14T14:01:14.698Z,45.09
2016-09-14T14:02:25.718Z,44.9
2016-09-14T14:03:36.736Z,46.08
2016-09-14T14:04:47.740Z,46.17
2016-09-14T14:05:58.770Z,46.86
2016-09-14T14:07:09.790Z,47.74
2016-09-14T14:08:20.805Z,46.86
2016-09-14T14:09:31.822Z,45.88
2016-09-14T14:10:42.839Z,45.09
2016-09-14T14:11:54.065Z,44.31
2016-09-14T14:13:05.277Z,46.44
2016-09-14T14:14:16.298Z,45.17
2016-09-14T14:15:27.512Z,46.52
2016-09-14T14:16:38.523Z,46.44
2016-09-14T14:17:49.734Z,48.5
2016-09-14T14:19:00.747Z,47.81
2016-09-14T14:20:11.774Z,47.4
2016-09-14T14:21:22.782Z,48.11
2016-09-14T14:22:33.790Z,46.54
2016-09-14T14:23:44.800Z,44.09
2016-09-14T14:24:55.827Z,45.47
2016-09-14T14:26:06.845Z,45.83
2016-09-14T14:27:17.866Z,47.42
2016-09-14T14:28:28.882Z,46.64
2016-09-14T14:29:39.895Z,46.54
2016-09-14T14:30:51.106Z,45.27
2016-09-14T14:32:02.120Z,46.84
2016-09-14T14:33:13.156Z,48.5
2016-09-14T14:34:24.365Z,47.42
2016-09-14T14:35:35.387Z,45.73
2016-09-14T14:36:46.411Z,45.83
2016-09-14T14:37:57.431Z,44.37
2016-09-14T14:39:08.447Z,45.03
2016-09-14T14:40:19.463Z,45.4
2016-09-14T14:41:30.485Z,45.4
2016-09-14T14:42:41.503Z,46.37
2016-09-14T14:43:52.517Z,46.18
2016-09-14T14:45:03.539Z,46.77
2016-09-14T14:46:14.548Z,46.55
2016-09-14T14:47:25.764Z,48.02
2016-09-14T14:48:36.784Z,48.31
2016-09-14T14:49:47.795Z,46.55
2016-09-14T14:50:58.812Z,46.43
2016-09-14T14:52:10.028Z,47.21
2016-09-14T14:53:21.243Z,46.53
2016-09-14T14:54:32.258Z,46.82
2016-09-14T14:55:43.333Z,44.96
2016-09-14T14:56:54.348Z,47.6
2016-09-14T14:58:05.406Z,47.7
2016-09-14T14:59:16.419Z,47.48
2016-09-14T15:00:27.435Z,46.11
2016-09-14T15:01:38.454Z,47.58
2016-09-14T15:02:49.471Z,48.94
2016-09-14T15:04:00.504Z,48.46
2016-09-14T15:05:11.514Z,47.09
2016-09-14T15:06:22.529Z,47.38
2016-09-14T15:07:33.537Z,48.55
2016-09-14T15:08:44.753Z,46.7
2016-09-14T15:09:55.762Z,48.55
2016-09-14T15:11:06.775Z,47.67
2016-09-14T15:12:17.794Z,49.02
2016-09-14T15:13:28.814Z,48.44
2016-09-14T15:14:39.845Z,48.93
2016-09-14T15:15:50.863Z,47.36
2016-09-14T15:17:01.878Z,49.12
2016-09-14T15:18:12.881Z,48.54
2016-09-14T15:19:23.899Z,48.44